Time,TemperatureF,DewpointF,PressureIn,WindDirection,WindDirectionDegrees,WindSpeedMPH,WindSpeedGustMPH,Humidity,HourlyPrecipIn,Conditions,Clouds,dailyrainin,SolarRadiationWatts/m^2,SoftwareType,DateUTC
2013-04-25 00:00:00,56.9,52.4,29.63,West,261,9.0,28.0,85,0.02,,,0.00,0.00,VWS V14.00,2013-04-25 04:00:00,
2013-04-25 00:01:00,56.9,52.4,29.63,West,277,10.0,28.0,85,0.02,,,0.06,0.00,VWS V14.00,2013-04-25 04:01:00,
2013-04-25 00:02:00,56.9,52.4,29.63,West,271,4.0,20.0,85,0.02,,,0.00,0.00,VWS V14.00,2013-04-25 04:02:00,
2013-04-25 00:05:00,56.8,52.3,29.63,SW,231,12.0,23.0,85,0.02,,,0.00,0.00,VWS V14.00,2013-04-25 04:05:00,
2013-04-25 00:07:00,56.7,52.2,29.62,West,265,10.0,19.0,85,0.02,,,0.00,0.00,VWS V14.00,2013-04-25 04:07:00,
2013-04-25 00:10:00,56.3,51.9,29.62,WNW,288,5.0,19.0,85,0.02,,,0.00,0.00,VWS V14.00,2013-04-25 04:10:00,
2013-04-25 00:12:00,56.2,51.4,29.62,West,266,17.0,18.0,84,0.02,,,0.00,0.00,VWS V14.00,2013-04-25 04:12:00,
2013-04-25 00:15:00,55.9,51.1,29.62,West,259,9.0,18.0,84,0.02,,,0.00,0.00,VWS V14.00,2013-04-25 04:15:00,
2013-04-25 00:17:00,55.8,51.0,29.62,SW,219,11.0,13.0,84,0.02,,,0.00,0.00,VWS V14.00,2013-04-25 04:17:00,
2013-04-25 00:20:00,55.5,50.4,29.62,West,273,12.0,28.0,83,0.02,,,0.00,0.00,VWS V14.00,2013-04-25 04:20:00,
2013-04-25 00:22:00,55.3,50.2,29.62,WSW,257,15.0,17.0,83,0.02,,,0.00,0.00,VWS V14.00,2013-04-25 04:22:00,
2013-04-25 00:25:00,55.1,49.7,29.62,SW,234,7.0,20.0,82,0.02,,,0.00,0.00,VWS V14.00,2013-04-25 04:25:00,
2013-04-25 00:27:00,55.0,49.6,29.62,West,262,8.0,12.0,82,0.02,,,0.00,0.00,VWS V14.00,2013-04-25 04:27:00,
2013-04-25 00:30:00,54.8,49.4,29.62,West,261,9.0,19.0,82,0.02,,,0.00,0.00,VWS V14.00,2013-04-25 04:30:00,
2013-04-25 00:32:00,54.8,49.4,29.61,SW,233,8.0,18.0,82,0.02,,,0.00,0.00,VWS V14.00,2013-04-25 04:32:00,
2013-04-25 00:35:00,54.6,49.2,29.61,West,271,28.0,28.0,82,0.02,,,0.00,0.00,VWS V14.00,2013-04-25 04:35:00,
2013-04-25 00:37:00,54.4,49.0,29.62,WSW,248,15.0,28.0,82,0.02,,,0.00,0.00,VWS V14.00,2013-04-25 04:37:00,
2013-04-25 00:40:00,54.2,48.8,29.61,WNW,295,5.0,28.0,82,0.03,,,0.01,0.00,VWS V14.00,2013-04-25 04:40:00,
2013-04-25 00:42:00,54.2,48.8,29.61,WSW,244,6.0,11.0,82,0.03,,,0.01,0.00,VWS V14.00,2013-04-25 04:42:00,
2013-04-25 00:45:00,53.8,47.8,29.61,WSW,240,18.0,28.0,80,0.03,,,0.01,0.00,VWS V14.00,2013-04-25 04:45:00,
2013-04-25 00:47:00,53.6,47.3,29.61,West,275,24.0,31.0,79,0.03,,,0.01,0.00,VWS V14.00,2013-04-25 04:47:00,
2013-04-25 00:50:00,53.3,46.6,29.61,West,279,20.0,31.0,78,0.03,,,0.01,0.00,VWS V14.00,2013-04-25 04:50:00,
2013-04-25 00:52:00,53.2,46.5,29.62,West,267,9.0,20.0,78,0.03,,,0.01,0.00,VWS V14.00,2013-04-25 04:52:00,
2013-04-25 00:55:00,52.8,45.8,29.61,WSW,252,7.0,22.0,77,0.03,,,0.01,0.00,VWS V14.00,2013-04-25 04:55:00,
2013-04-25 00:57:00,52.7,45.7,29.62,West,269,10.0,23.0,77,0.01,,,0.01,0.00,VWS V14.00,2013-04-25 04:57:00,
2013-04-25 01:00:00,52.2,44.9,29.61,WNW,291,14.0,29.0,76,0.01,,,0.01,0.00,VWS V14.00,2013-04-25 05:00:00,
2013-04-25 01:02:00,52.0,44.7,29.61,SW,229,12.0,25.0,76,0.01,,,0.01,0.00,VWS V14.00,2013-04-25 05:02:00,
2013-04-25 01:05:00,51.4,43.8,29.62,WSW,243,17.0,25.0,75,0.01,,,0.01,0.00,VWS V14.00,2013-04-25 05:05:00,
2013-04-25 01:07:00,51.2,43.6,29.62,SW,216,19.0,23.0,75,0.01,,,0.01,0.00,VWS V14.00,2013-04-25 05:07:00,
2013-04-25 01:10:00,50.6,42.6,29.63,NW,317,16.0,29.0,74,0.01,,,0.01,0.00,VWS V14.00,2013-04-25 05:10:00,
2013-04-25 01:12:00,50.4,42.4,29.62,WSW,246,5.0,21.0,74,0.01,,,0.01,0.00,VWS V14.00,2013-04-25 05:12:00,
2013-04-25 01:15:00,49.9,41.6,29.62,West,261,12.0,24.0,73,0.01,,,0.01,0.00,VWS V14.00,2013-04-25 05:15:00,
2013-04-25 01:17:00,49.8,41.9,29.62,West,273,8.0,23.0,74,0.01,,,0.01,0.00,VWS V14.00,2013-04-25 05:17:00,
2013-04-25 01:20:00,49.3,41.0,29.62,WNW,285,11.0,36.0,73,0.01,,,0.01,0.00,VWS V14.00,2013-04-25 05:20:00,
2013-04-25 01:22:00,49.1,40.8,29.62,WSW,248,14.0,25.0,73,0.01,,,0.01,0.00,VWS V14.00,2013-04-25 05:22:00,
2013-04-25 01:25:00,48.7,40.5,29.63,WNW,282,6.0,25.0,73,0.01,,,0.01,0.00,VWS V14.00,2013-04-25 05:25:00,
2013-04-25 01:27:00,48.5,40.2,29.63,West,271,20.0,25.0,73,0.01,,,0.01,0.00,VWS V14.00,2013-04-25 05:27:00,
2013-04-25 01:30:00,48.2,40.0,29.64,WSW,255,17.0,25.0,73,0.01,,,0.01,0.00,VWS V14.00,2013-04-25 05:30:00,
2013-04-25 01:32:00,48.0,39.8,29.64,West,268,8.0,23.0,73,0.01,,,0.01,0.00,VWS V14.00,2013-04-25 05:32:00,
2013-04-25 01:35:00,47.7,39.5,29.64,West,276,11.0,28.0,73,0.01,,,0.01,0.00,VWS V14.00,2013-04-25 05:35:00,
2013-04-25 01:37:00,47.5,39.3,29.65,West,273,12.0,35.0,73,0.01,,,0.01,0.00,VWS V14.00,2013-04-25 05:37:00,
2013-04-25 01:40:00,47.1,38.5,29.66,WNW,284,17.0,39.0,72,0.01,,,0.01,0.00,VWS V14.00,2013-04-25 05:40:00,
2013-04-25 01:42:00,47.0,38.5,29.66,WSW,257,19.0,28.0,72,0.00,,,0.01,0.00,VWS V14.00,2013-04-25 05:42:00,
2013-04-25 01:45:00,46.7,37.8,29.67,West,277,12.0,28.0,71,0.00,,,0.01,0.00,VWS V14.00,2013-04-25 05:45:00,
2013-04-25 01:47:00,46.6,37.7,29.68,West,270,14.0,26.0,71,0.00,,,0.01,0.00,VWS V14.00,2013-04-25 05:47:00,
2013-04-25 01:50:00,46.3,37.4,29.67,WSW,255,16.0,31.0,71,0.00,,,0.01,0.00,VWS V14.00,2013-04-25 05:50:00,
2013-04-25 01:52:00,46.2,37.3,29.68,West,273,13.0,25.0,71,0.00,,,0.01,0.00,VWS V14.00,2013-04-25 05:52:00,
2013-04-25 01:55:00,45.9,37.0,29.69,West,269,10.0,34.0,71,0.00,,,0.01,0.00,VWS V14.00,2013-04-25 05:55:00,
2013-04-25 01:57:00,45.8,37.0,29.69,West,273,19.0,27.0,71,0.00,,,0.01,0.00,VWS V14.00,2013-04-25 05:57:00,
2013-04-25 02:00:00,45.6,36.8,29.70,SW,224,10.0,34.0,71,0.00,,,0.01,0.00,VWS V14.00,2013-04-25 06:00:00,
2013-04-25 02:02:00,45.5,36.7,29.70,West,279,6.0,20.0,71,0.00,,,0.01,0.00,VWS V14.00,2013-04-25 06:02:00,
2013-04-25 02:05:00,45.4,36.9,29.71,West,266,8.0,26.0,72,0.00,,,0.01,0.00,VWS V14.00,2013-04-25 06:05:00,
2013-04-25 02:07:00,45.3,36.8,29.71,WSW,253,7.0,13.0,72,0.00,,,0.01,0.00,VWS V14.00,2013-04-25 06:07:00,
2013-04-25 02:10:00,45.1,36.6,29.73,West,264,17.0,21.0,72,0.00,,,0.01,0.00,VWS V14.00,2013-04-25 06:10:00,
2013-04-25 02:12:00,45.0,36.5,29.73,SW,230,5.0,21.0,72,0.00,,,0.01,0.00,VWS V14.00,2013-04-25 06:12:00,
2013-04-25 02:15:00,44.8,36.3,29.73,West,277,4.0,26.0,72,0.00,,,0.01,0.00,VWS V14.00,2013-04-25 06:15:00,
2013-04-25 02:17:00,44.7,36.2,29.74,NW,309,6.0,10.0,72,0.00,,,0.01,0.00,VWS V14.00,2013-04-25 06:17:00,
2013-04-25 02:20:00,44.5,36.0,29.74,West,271,9.0,14.0,72,0.00,,,0.01,0.00,VWS V14.00,2013-04-25 06:20:00,
2013-04-25 02:22:00,44.5,36.0,29.74,West,278,6.0,18.0,72,0.00,,,0.01,0.00,VWS V14.00,2013-04-25 06:22:00,
2013-04-25 02:25:00,44.3,35.9,29.76,NW,323,7.0,20.0,72,0.00,,,0.01,0.00,VWS V14.00,2013-04-25 06:25:00,
2013-04-25 02:27:00,44.3,35.9,29.75,WNW,300,0.0,15.0,72,0.00,,,0.01,0.00,VWS V14.00,2013-04-25 06:27:00,
2013-04-25 02:30:00,44.2,35.8,29.76,West,271,7.0,25.0,72,0.00,,,0.01,0.00,VWS V14.00,2013-04-25 06:30:00,
2013-04-25 02:32:00,44.1,35.7,29.76,West,279,11.0,17.0,72,0.00,,,0.01,0.00,VWS V14.00,2013-04-25 06:32:00,
2013-04-25 02:35:00,44.0,35.6,29.77,NW,319,8.0,24.0,72,0.00,,,0.01,0.00,VWS V14.00,2013-04-25 06:35:00,
2013-04-25 02:37:00,43.9,35.5,29.78,NW,307,14.0,21.0,72,0.00,,,0.01,0.00,VWS V14.00,2013-04-25 06:37:00,
2013-04-25 02:40:00,43.8,35.4,29.78,NW,306,4.0,21.0,72,0.00,,,0.01,0.00,VWS V14.00,2013-04-25 06:40:00,
2013-04-25 02:42:00,43.8,35.4,29.78,NW,319,9.0,9.0,72,0.00,,,0.01,0.00,VWS V14.00,2013-04-25 06:42:00,
2013-04-25 02:45:00,43.7,35.3,29.78,WSW,240,15.0,17.0,72,0.00,,,0.01,0.00,VWS V14.00,2013-04-25 06:45:00,
2013-04-25 02:47:00,43.6,35.2,29.79,NW,311,5.0,15.0,72,0.00,,,0.01,0.00,VWS V14.00,2013-04-25 06:47:00,
2013-04-25 02:50:00,43.4,35.0,29.79,NW,310,15.0,16.0,72,0.00,,,0.01,0.00,VWS V14.00,2013-04-25 06:50:00,
2013-04-25 02:52:00,43.3,34.9,29.79,WSW,246,5.0,16.0,72,0.00,,,0.01,0.00,VWS V14.00,2013-04-25 06:52:00,
2013-04-25 02:55:00,43.2,34.8,29.80,NW,313,17.0,19.0,72,0.00,,,0.01,0.00,VWS V14.00,2013-04-25 06:55:00,
2013-04-25 02:57:00,43.1,34.7,29.80,WSW,257,11.0,17.0,72,0.00,,,0.01,0.00,VWS V14.00,2013-04-25 06:57:00,
2013-04-25 03:00:00,43.0,34.2,29.81,WNW,302,5.0,17.0,71,0.00,,,0.01,0.00,VWS V14.00,2013-04-25 07:00:00,
2013-04-25 03:02:00,43.0,34.2,29.81,WNW,296,2.0,7.0,71,0.00,,,0.01,0.00,VWS V14.00,2013-04-25 07:02:00,
2013-04-25 03:05:00,42.9,34.2,29.81,NW,310,11.0,13.0,71,0.00,,,0.01,0.00,VWS V14.00,2013-04-25 07:05:00,
2013-04-25 03:07:00,42.9,34.2,29.82,West,261,2.0,11.0,71,0.00,,,0.01,0.00,VWS V14.00,2013-04-25 07:07:00,
2013-04-25 03:10:00,42.8,34.4,29.81,NW,313,11.0,13.0,72,0.00,,,0.01,0.00,VWS V14.00,2013-04-25 07:10:00,
2013-04-25 03:12:00,42.7,34.3,29.82,West,269,3.0,13.0,72,0.00,,,0.01,0.00,VWS V14.00,2013-04-25 07:12:00,
2013-04-25 03:15:00,42.7,34.3,29.82,NW,310,1.0,14.0,72,0.00,,,0.01,0.00,VWS V14.00,2013-04-25 07:15:00,
2013-04-25 03:17:00,42.6,34.2,29.82,NW,320,9.0,9.0,72,0.00,,,0.01,0.00,VWS V14.00,2013-04-25 07:17:00,
2013-04-25 03:26:00,42.5,34.1,29.83,West,272,3.0,3.0,72,0.00,,,0.01,0.00,VWS V14.00,2013-04-25 07:26:00,
2013-04-25 03:31:00,42.4,34.0,29.84,SW,230,6.0,10.0,72,0.00,,,0.01,0.00,VWS V14.00,2013-04-25 07:31:00,
2013-04-25 03:36:00,42.1,33.4,29.84,West,275,15.0,15.0,71,0.00,,,0.01,0.00,VWS V14.00,2013-04-25 07:36:00,
2013-04-25 03:41:00,41.9,33.2,29.85,West,275,6.0,13.0,71,0.00,,,0.01,0.00,VWS V14.00,2013-04-25 07:41:00,
2013-04-25 03:46:00,41.6,33.3,29.85,West,260,13.0,13.0,72,0.00,,,0.01,0.00,VWS V14.00,2013-04-25 07:46:00,
2013-04-25 03:51:00,41.4,33.1,29.85,West,272,17.0,17.0,72,0.00,,,0.01,0.00,VWS V14.00,2013-04-25 07:51:00,
2013-04-25 03:56:00,41.2,32.9,29.85,West,274,11.0,13.0,72,0.00,,,0.01,0.00,VWS V14.00,2013-04-25 07:56:00,
2013-04-25 04:01:00,40.9,32.6,29.84,West,276,12.0,14.0,72,0.00,,,0.01,0.00,VWS V14.00,2013-04-25 08:01:00,
2013-04-25 04:06:00,40.7,32.7,29.84,WSW,253,14.0,19.0,73,0.00,,,0.01,0.00,VWS V14.00,2013-04-25 08:06:00,
2013-04-25 04:11:00,40.5,32.5,29.85,WNW,302,11.0,15.0,73,0.00,,,0.01,0.00,VWS V14.00,2013-04-25 08:11:00,
2013-04-25 04:16:00,40.3,32.3,29.85,WNW,298,12.0,23.0,73,0.00,,,0.01,0.00,VWS V14.00,2013-04-25 08:16:00,
2013-04-25 04:21:00,40.2,32.2,29.85,West,265,18.0,22.0,73,0.00,,,0.01,0.00,VWS V14.00,2013-04-25 08:21:00,
2013-04-25 04:26:00,40.0,32.1,29.85,West,263,9.0,13.0,73,0.00,,,0.01,0.00,VWS V14.00,2013-04-25 08:26:00,
2013-04-25 04:31:00,40.0,32.1,29.86,WSW,255,12.0,26.0,73,0.00,,,0.01,0.00,VWS V14.00,2013-04-25 08:31:00,
2013-04-25 04:36:00,40.0,32.1,29.87,SW,232,8.0,17.0,73,0.00,,,0.01,0.00,VWS V14.00,2013-04-25 08:36:00,
2013-04-25 04:41:00,39.9,32.0,29.87,WSW,254,12.0,12.0,73,0.00,,,0.01,0.00,VWS V14.00,2013-04-25 08:41:00,
2013-04-25 04:46:00,39.7,31.8,29.88,West,262,13.0,21.0,73,0.00,,,0.01,0.00,VWS V14.00,2013-04-25 08:46:00,
2013-04-25 04:51:00,39.6,31.7,29.88,West,271,7.0,7.0,73,0.00,,,0.01,0.00,VWS V14.00,2013-04-25 08:51:00,
2013-04-25 04:56:00,39.5,31.6,29.88,West,267,5.0,10.0,73,0.00,,,0.01,0.00,VWS V14.00,2013-04-25 08:56:00,
2013-04-25 05:01:00,39.5,31.6,29.89,West,279,10.0,19.0,73,0.00,,,0.01,0.00,VWS V14.00,2013-04-25 09:01:00,
2013-04-25 05:06:00,39.4,31.5,29.89,WSW,258,7.0,9.0,73,0.00,,,0.01,0.00,VWS V14.00,2013-04-25 09:06:00,
2013-04-25 05:11:00,39.3,31.7,29.89,West,279,5.0,8.0,74,0.00,,,0.01,0.00,VWS V14.00,2013-04-25 09:11:00,
2013-04-25 05:16:00,39.3,31.7,29.90,West,264,2.0,7.0,74,0.00,,,0.01,0.00,VWS V14.00,2013-04-25 09:16:00,
2013-04-25 05:21:00,39.2,31.6,29.90,West,273,3.0,4.0,74,0.00,,,0.01,0.00,VWS V14.00,2013-04-25 09:21:00,
2013-04-25 05:26:00,39.1,31.5,29.91,NNW,327,5.0,10.0,74,0.00,,,0.01,0.00,VWS V14.00,2013-04-25 09:26:00,
2013-04-25 05:31:00,38.9,31.3,29.91,NW,325,6.0,7.0,74,0.00,,,0.01,0.00,VWS V14.00,2013-04-25 09:31:00,
2013-04-25 05:36:00,38.9,31.7,29.91,West,261,2.0,4.0,75,0.00,,,0.01,0.00,VWS V14.00,2013-04-25 09:36:00,
2013-04-25 05:41:00,38.9,31.7,29.92,SW,236,4.0,4.0,75,0.00,,,0.01,0.00,VWS V14.00,2013-04-25 09:41:00,
2013-04-25 05:46:00,38.8,31.6,29.92,NW,306,1.0,2.0,75,0.00,,,0.01,0.00,VWS V14.00,2013-04-25 09:46:00,
2013-04-25 05:51:00,38.8,31.6,29.93,WSW,253,0.0,2.0,75,0.00,,,0.01,0.00,VWS V14.00,2013-04-25 09:51:00,
2013-04-25 05:56:00,38.8,31.6,29.94,WSW,253,0.0,0.0,75,0.00,,,0.01,0.00,VWS V14.00,2013-04-25 09:56:00,
2013-04-25 06:01:00,38.8,31.9,29.94,WSW,253,0.0,0.0,76,0.00,,,0.01,5.00,VWS V14.00,2013-04-25 10:01:00,
2013-04-25 06:06:00,38.8,31.9,29.94,WSW,253,0.0,0.0,76,0.00,,,0.01,7.00,VWS V14.00,2013-04-25 10:06:00,
2013-04-25 06:11:00,38.8,31.9,29.95,West,265,8.0,8.0,76,0.00,,,0.01,9.00,VWS V14.00,2013-04-25 10:11:00,
2013-04-25 06:16:00,38.9,32.0,29.95,West,267,3.0,4.0,76,0.00,,,0.01,14.00,VWS V14.00,2013-04-25 10:16:00,
2013-04-25 06:21:00,39.0,32.1,29.95,West,267,3.0,5.0,76,0.00,,,0.01,23.00,VWS V14.00,2013-04-25 10:21:00,
2013-04-25 06:26:00,39.0,32.1,29.96,WSW,243,7.0,7.0,76,0.00,,,0.01,30.00,VWS V14.00,2013-04-25 10:26:00,
2013-04-25 06:31:00,39.1,32.2,29.97,WNW,284,2.0,3.0,76,0.00,,,0.01,37.00,VWS V14.00,2013-04-25 10:31:00,
2013-04-25 06:36:00,39.2,32.3,29.97,WSW,252,8.0,9.0,76,0.00,,,0.01,44.00,VWS V14.00,2013-04-25 10:36:00,
2013-04-25 06:41:00,39.3,32.4,29.97,West,263,3.0,3.0,76,0.00,,,0.01,62.00,VWS V14.00,2013-04-25 10:41:00,
2013-04-25 06:46:00,39.4,32.5,29.98,West,265,5.0,6.0,76,0.00,,,0.01,51.00,VWS V14.00,2013-04-25 10:46:00,
2013-04-25 06:51:00,39.5,32.2,29.99,West,264,12.0,12.0,75,0.00,,,0.01,53.00,VWS V14.00,2013-04-25 10:51:00,
2013-04-25 06:56:00,39.6,32.3,30.00,West,260,4.0,6.0,75,0.00,,,0.01,46.00,VWS V14.00,2013-04-25 10:56:00,
2013-04-25 07:01:00,39.7,32.4,30.00,WNW,291,0.0,0.0,75,0.00,,,0.01,44.00,VWS V14.00,2013-04-25 11:01:00,
2013-04-25 07:06:00,39.7,32.1,30.01,West,259,5.0,6.0,74,0.00,,,0.01,47.00,VWS V14.00,2013-04-25 11:06:00,
2013-04-25 07:11:00,39.8,32.2,30.01,West,275,7.0,7.0,74,0.00,,,0.01,58.00,VWS V14.00,2013-04-25 11:11:00,
2013-04-25 07:16:00,39.9,32.3,30.01,WSW,257,6.0,6.0,74,0.00,,,0.01,86.00,VWS V14.00,2013-04-25 11:16:00,
2013-04-25 07:21:00,40.0,32.1,30.01,SW,236,5.0,7.0,73,0.00,,,0.01,91.00,VWS V14.00,2013-04-25 11:21:00,
2013-04-25 07:26:00,40.1,32.2,30.01,West,276,6.0,9.0,73,0.00,,,0.01,107.00,VWS V14.00,2013-04-25 11:26:00,
2013-04-25 07:31:00,40.1,32.2,30.02,SW,226,6.0,10.0,73,0.00,,,0.01,121.00,VWS V14.00,2013-04-25 11:31:00,
2013-04-25 07:36:00,40.1,32.2,30.02,West,265,3.0,4.0,73,0.00,,,0.01,86.00,VWS V14.00,2013-04-25 11:36:00,
2013-04-25 07:41:00,40.1,32.2,30.03,NW,308,11.0,13.0,73,0.00,,,0.01,84.00,VWS V14.00,2013-04-25 11:41:00,
2013-04-25 07:46:00,40.1,32.2,30.03,WSW,240,8.0,8.0,73,0.00,,,0.01,88.00,VWS V14.00,2013-04-25 11:46:00,
2013-04-25 07:51:00,40.0,32.1,30.03,WNW,284,2.0,6.0,73,0.00,,,0.01,105.00,VWS V14.00,2013-04-25 11:51:00,
2013-04-25 07:56:00,40.0,32.4,30.03,West,259,2.0,3.0,74,0.00,,,0.01,137.00,VWS V14.00,2013-04-25 11:56:00,
2013-04-25 08:01:00,40.0,32.4,30.03,WNW,289,6.0,6.0,74,0.00,,,0.01,155.00,VWS V14.00,2013-04-25 12:01:00,
2013-04-25 08:06:00,40.0,32.1,30.04,West,266,9.0,9.0,73,0.00,,,0.01,162.00,VWS V14.00,2013-04-25 12:06:00,
2013-04-25 08:11:00,40.0,32.1,30.04,WSW,252,4.0,10.0,73,0.00,,,0.01,172.00,VWS V14.00,2013-04-25 12:11:00,
2013-04-25 08:16:00,40.1,32.2,30.04,West,263,8.0,10.0,73,0.00,,,0.01,195.00,VWS V14.00,2013-04-25 12:16:00,
2013-04-25 08:21:00,40.3,32.0,30.04,WNW,284,10.0,10.0,72,0.00,,,0.01,214.00,VWS V14.00,2013-04-25 12:21:00,
2013-04-25 08:26:00,40.5,32.2,30.04,West,259,6.0,6.0,72,0.00,,,0.01,206.00,VWS V14.00,2013-04-25 12:26:00,
2013-04-25 08:31:00,40.7,32.4,30.04,West,269,9.0,12.0,72,0.00,,,0.01,283.00,VWS V14.00,2013-04-25 12:31:00,
2013-04-25 08:36:00,40.8,32.1,30.04,WNW,286,3.0,5.0,71,0.00,,,0.01,246.00,VWS V14.00,2013-04-25 12:36:00,
2013-04-25 08:41:00,41.0,32.3,30.04,West,277,3.0,6.0,71,0.00,,,0.01,206.00,VWS V14.00,2013-04-25 12:41:00,
2013-04-25 08:46:00,41.1,32.1,30.04,NW,316,1.0,6.0,70,0.00,,,0.01,206.00,VWS V14.00,2013-04-25 12:46:00,
2013-04-25 08:51:00,41.3,32.6,30.04,West,261,1.0,3.0,71,0.00,,,0.01,329.00,VWS V14.00,2013-04-25 12:51:00,
2013-04-25 08:56:00,41.5,32.5,30.04,West,266,5.0,7.0,70,0.00,,,0.01,346.00,VWS V14.00,2013-04-25 12:56:00,
2013-04-25 09:01:00,41.8,32.4,30.05,West,261,6.0,6.0,69,0.00,,,0.01,483.00,VWS V14.00,2013-04-25 13:01:00,
2013-04-25 09:06:00,42.1,32.7,30.05,West,263,11.0,11.0,69,0.00,,,0.01,466.00,VWS V14.00,2013-04-25 13:06:00,
2013-04-25 09:11:00,42.5,33.1,30.05,West,269,5.0,9.0,69,0.00,,,0.01,353.00,VWS V14.00,2013-04-25 13:11:00,
2013-04-25 09:16:00,42.7,32.5,30.05,WSW,257,8.0,8.0,67,0.00,,,0.01,352.00,VWS V14.00,2013-04-25 13:16:00,
2013-04-25 09:21:00,42.9,32.3,30.05,West,265,0.0,1.0,66,0.00,,,0.01,330.00,VWS V14.00,2013-04-25 13:21:00,
2013-04-25 09:26:00,43.0,32.4,30.05,WSW,250,5.0,5.0,66,0.00,,,0.01,385.00,VWS V14.00,2013-04-25 13:26:00,
2013-04-25 09:31:00,43.1,32.2,30.05,West,272,3.0,5.0,65,0.00,,,0.01,369.00,VWS V14.00,2013-04-25 13:31:00,
2013-04-25 09:36:00,43.3,32.3,30.06,West,271,6.0,6.0,65,0.00,,,0.01,330.00,VWS V14.00,2013-04-25 13:36:00,
2013-04-25 09:41:00,43.3,32.3,30.06,WSW,241,5.0,6.0,65,0.00,,,0.01,292.00,VWS V14.00,2013-04-25 13:41:00,
2013-04-25 09:46:00,43.4,32.0,30.07,SW,225,8.0,8.0,64,0.00,,,0.01,308.00,VWS V14.00,2013-04-25 13:46:00,
2013-04-25 09:51:00,43.4,31.7,30.07,SSW,212,8.0,11.0,63,0.00,,,0.01,394.00,VWS V14.00,2013-04-25 13:51:00,
2013-04-25 09:56:00,43.8,32.4,30.07,WSW,253,2.0,4.0,64,0.00,,,0.01,800.00,VWS V14.00,2013-04-25 13:56:00,
2013-04-25 10:01:00,44.4,33.0,30.07,WSW,251,7.0,7.0,64,0.00,,,0.01,819.00,VWS V14.00,2013-04-25 14:01:00,
2013-04-25 10:06:00,44.8,33.0,30.07,WSW,256,2.0,3.0,63,0.00,,,0.01,812.00,VWS V14.00,2013-04-25 14:06:00,
2013-04-25 10:11:00,44.9,32.7,30.08,WNW,283,2.0,3.0,62,0.00,,,0.01,195.00,VWS V14.00,2013-04-25 14:11:00,
2013-04-25 10:16:00,44.8,31.8,30.08,West,278,0.0,1.0,60,0.00,,,0.01,244.00,VWS V14.00,2013-04-25 14:16:00,
2013-04-25 10:21:00,44.9,32.7,30.08,SW,233,8.0,8.0,62,0.00,,,0.01,867.00,VWS V14.00,2013-04-25 14:21:00,
2013-04-25 10:26:00,45.4,33.2,30.08,West,269,4.0,5.0,62,0.00,,,0.01,183.00,VWS V14.00,2013-04-25 14:26:00,
2013-04-25 10:31:00,45.3,31.8,30.08,West,269,0.0,0.0,59,0.00,,,0.01,195.00,VWS V14.00,2013-04-25 14:31:00,
2013-04-25 10:36:00,45.5,33.2,30.08,West,269,1.0,1.0,62,0.00,,,0.01,292.00,VWS V14.00,2013-04-25 14:36:00,
2013-04-25 10:41:00,45.7,32.6,30.08,West,269,0.0,0.0,60,0.00,,,0.01,287.00,VWS V14.00,2013-04-25 14:41:00,
2013-04-25 10:46:00,45.9,32.4,30.08,WSW,246,2.0,5.0,59,0.00,,,0.01,292.00,VWS V14.00,2013-04-25 14:46:00,
2013-04-25 10:51:00,46.2,33.1,30.09,SW,217,2.0,4.0,60,0.00,,,0.01,972.00,VWS V14.00,2013-04-25 14:51:00,
2013-04-25 10:56:00,46.3,31.9,30.09,WSW,238,7.0,7.0,57,0.00,,,0.01,250.00,VWS V14.00,2013-04-25 14:56:00,
2013-04-25 11:01:00,45.8,31.5,30.09,ENE,74,2.0,2.0,57,0.00,,,0.01,243.00,VWS V14.00,2013-04-25 15:01:00,
2013-04-25 11:06:00,45.4,31.5,30.09,East,88,0.0,0.0,58,0.00,,,0.01,229.00,VWS V14.00,2013-04-25 15:06:00,
2013-04-25 11:11:00,45.1,30.8,30.09,East,88,1.0,1.0,57,0.00,,,0.01,388.00,VWS V14.00,2013-04-25 15:11:00,
2013-04-25 11:16:00,45.5,32.0,30.09,SSE,148,0.0,1.0,59,0.00,,,0.01,612.00,VWS V14.00,2013-04-25 15:16:00,
2013-04-25 11:21:00,46.5,32.1,30.10,SE,146,6.0,6.0,57,0.00,,,0.01,304.00,VWS V14.00,2013-04-25 15:21:00,
2013-04-25 11:26:00,46.5,31.2,30.10,SSE,147,1.0,1.0,55,0.00,,,0.01,327.00,VWS V14.00,2013-04-25 15:26:00,
2013-04-25 11:31:00,46.6,31.3,30.10,SSE,147,0.0,0.0,55,0.00,,,0.01,585.00,VWS V14.00,2013-04-25 15:31:00,
2013-04-25 11:36:00,47.3,33.3,30.10,SE,143,4.0,4.0,58,0.00,,,0.01,1192.00,VWS V14.00,2013-04-25 15:36:00,
2013-04-25 11:41:00,47.5,31.2,30.10,South,171,1.0,1.0,53,0.00,,,0.01,359.00,VWS V14.00,2013-04-25 15:41:00,
2013-04-25 11:46:00,47.3,30.6,30.10,NNE,22,2.0,2.0,52,0.00,,,0.01,274.00,VWS V14.00,2013-04-25 15:46:00,
2013-04-25 11:51:00,47.2,30.5,30.10,NNE,13,0.0,0.0,52,0.00,,,0.01,250.00,VWS V14.00,2013-04-25 15:51:00,
2013-04-25 11:56:00,47.1,30.9,30.10,NNE,17,2.0,2.0,53,0.00,,,0.01,316.00,VWS V14.00,2013-04-25 15:56:00,
2013-04-25 12:01:00,47.4,32.1,30.11,NNE,17,0.0,0.0,55,0.00,,,0.01,617.00,VWS V14.00,2013-04-25 16:01:00,
2013-04-25 12:06:00,48.3,34.7,30.11,ESE,107,0.0,1.0,59,0.00,,,0.01,1169.00,VWS V14.00,2013-04-25 16:06:00,
2013-04-25 12:11:00,49.0,31.7,30.11,SE,146,0.0,0.0,51,0.00,,,0.01,376.00,VWS V14.00,2013-04-25 16:11:00,
2013-04-25 12:16:00,49.4,32.5,30.11,SSE,148,0.0,0.0,52,0.00,,,0.01,1202.00,VWS V14.00,2013-04-25 16:16:00,
2013-04-25 12:21:00,49.6,32.7,30.11,East,86,1.0,3.0,52,0.00,,,0.01,1262.00,VWS V14.00,2013-04-25 16:21:00,
2013-04-25 12:26:00,49.2,32.3,30.11,SE,138,2.0,2.0,52,0.00,,,0.01,394.00,VWS V14.00,2013-04-25 16:26:00,
2013-04-25 12:31:00,48.7,31.4,30.11,SE,134,1.0,1.0,51,0.00,,,0.01,325.00,VWS V14.00,2013-04-25 16:31:00,
2013-04-25 12:36:00,48.9,32.5,30.11,South,179,5.0,5.0,53,0.00,,,0.01,1151.00,VWS V14.00,2013-04-25 16:36:00,
2013-04-25 12:41:00,49.6,34.1,30.11,SE,142,5.0,5.0,55,0.00,,,0.01,1079.00,VWS V14.00,2013-04-25 16:41:00,
2013-04-25 12:46:00,50.4,33.9,30.11,SE,136,6.0,7.0,53,0.00,,,0.01,432.00,VWS V14.00,2013-04-25 16:46:00,
2013-04-25 12:51:00,50.5,33.5,30.11,SSE,148,1.0,3.0,52,0.00,,,0.01,1155.00,VWS V14.00,2013-04-25 16:51:00,
2013-04-25 12:56:00,50.7,34.7,30.11,SE,125,3.0,6.0,54,0.00,,,0.01,318.00,VWS V14.00,2013-04-25 16:56:00,
2013-04-25 13:01:00,50.0,32.6,30.10,SSE,158,4.0,4.0,51,0.00,,,0.01,942.00,VWS V14.00,2013-04-25 17:01:00,
2013-04-25 13:06:00,49.6,33.2,30.11,ENE,78,3.0,6.0,53,0.00,,,0.01,1123.00,VWS V14.00,2013-04-25 17:06:00,
2013-04-25 13:11:00,50.6,35.0,30.11,SSE,154,3.0,3.0,55,0.00,,,0.01,258.00,VWS V14.00,2013-04-25 17:11:00,
2013-04-25 13:16:00,50.3,31.9,30.11,ESE,116,0.0,0.0,49,0.00,,,0.01,1209.00,VWS V14.00,2013-04-25 17:16:00,
2013-04-25 13:21:00,50.8,33.8,30.11,ESE,120,3.0,3.0,52,0.00,,,0.01,1083.00,VWS V14.00,2013-04-25 17:21:00,
2013-04-25 13:26:00,50.6,30.6,30.11,ENE,57,2.0,2.0,46,0.00,,,0.01,311.00,VWS V14.00,2013-04-25 17:26:00,
2013-04-25 13:31:00,50.4,33.0,30.11,SE,144,10.0,10.0,51,0.00,,,0.01,410.00,VWS V14.00,2013-04-25 17:31:00,
2013-04-25 13:36:00,50.0,32.6,30.11,SSE,149,3.0,3.0,51,0.00,,,0.01,301.00,VWS V14.00,2013-04-25 17:36:00,
2013-04-25 13:41:00,49.2,32.3,30.11,ESE,114,2.0,3.0,52,0.00,,,0.01,362.00,VWS V14.00,2013-04-25 17:41:00,
2013-04-25 13:46:00,48.7,32.3,30.11,East,95,2.0,2.0,53,0.00,,,0.01,364.00,VWS V14.00,2013-04-25 17:46:00,
2013-04-25 13:51:00,48.7,32.8,30.11,SSE,165,7.0,7.0,54,0.00,,,0.01,364.00,VWS V14.00,2013-04-25 17:51:00,
2013-04-25 13:56:00,49.1,31.8,30.11,South,169,1.0,2.0,51,0.00,,,0.01,316.00,VWS V14.00,2013-04-25 17:56:00,
2013-04-25 14:01:00,49.6,33.2,30.11,South,172,0.0,2.0,53,0.00,,,0.01,243.00,VWS V14.00,2013-04-25 18:01:00,
2013-04-25 14:06:00,50.1,33.2,30.11,SSE,158,6.0,7.0,52,0.00,,,0.01,485.00,VWS V14.00,2013-04-25 18:06:00,
2013-04-25 14:11:00,50.7,32.8,30.11,SSE,149,1.0,1.0,50,0.00,,,0.01,1055.00,VWS V14.00,2013-04-25 18:11:00,
2013-04-25 14:16:00,51.0,32.5,30.11,SE,146,4.0,4.0,49,0.00,,,0.01,316.00,VWS V14.00,2013-04-25 18:16:00,
2013-04-25 14:21:00,51.1,32.6,30.12,SSE,148,0.0,1.0,49,0.00,,,0.01,316.00,VWS V14.00,2013-04-25 18:21:00,
2013-04-25 14:26:00,51.7,32.7,30.11,South,170,0.0,1.0,48,0.00,,,0.01,283.00,VWS V14.00,2013-04-25 18:26:00,
2013-04-25 14:31:00,51.6,32.6,30.12,ESE,117,1.0,8.0,48,0.00,,,0.01,988.00,VWS V14.00,2013-04-25 18:31:00,
2013-04-25 14:36:00,51.5,32.5,30.12,SSE,160,4.0,9.0,48,0.00,,,0.01,956.00,VWS V14.00,2013-04-25 18:36:00,
2013-04-25 14:41:00,51.5,33.0,30.12,SSE,167,5.0,10.0,49,0.00,,,0.01,969.00,VWS V14.00,2013-04-25 18:41:00,
2013-04-25 14:46:00,51.7,33.7,30.12,ESE,117,7.0,12.0,50,0.00,,,0.01,940.00,VWS V14.00,2013-04-25 18:46:00,
2013-04-25 14:51:00,51.8,32.8,30.11,East,98,9.0,11.0,48,0.00,,,0.01,902.00,VWS V14.00,2013-04-25 18:51:00,
2013-04-25 14:56:00,51.8,32.2,30.11,ESE,111,1.0,11.0,47,0.00,,,0.01,884.00,VWS V14.00,2013-04-25 18:56:00,
2013-04-25 15:01:00,52.0,33.5,30.11,SSE,148,4.0,12.0,49,0.00,,,0.01,795.00,VWS V14.00,2013-04-25 19:01:00,
2013-04-25 15:06:00,52.6,34.0,30.11,South,186,1.0,8.0,49,0.00,,,0.01,851.00,VWS V14.00,2013-04-25 19:06:00,
2013-04-25 15:11:00,53.2,34.0,30.11,SSE,154,2.0,7.0,48,0.00,,,0.01,823.00,VWS V14.00,2013-04-25 19:11:00,
2013-04-25 15:16:00,53.2,33.0,30.11,ESE,108,4.0,10.0,46,0.00,,,0.01,828.00,VWS V14.00,2013-04-25 19:16:00,
2013-04-25 15:21:00,53.0,32.2,30.11,ENE,66,4.0,12.0,45,0.00,,,0.01,821.00,VWS V14.00,2013-04-25 19:21:00,
2013-04-25 15:26:00,52.7,33.0,30.11,SSE,163,0.0,10.0,47,0.00,,,0.01,810.00,VWS V14.00,2013-04-25 19:26:00,
2013-04-25 15:31:00,53.0,33.3,30.11,South,178,2.0,11.0,47,0.00,,,0.01,782.00,VWS V14.00,2013-04-25 19:31:00,
2013-04-25 15:36:00,52.7,33.0,30.12,SSE,147,7.0,8.0,47,0.00,,,0.01,775.00,VWS V14.00,2013-04-25 19:36:00,
2013-04-25 15:41:00,52.7,31.4,30.12,SSE,150,0.0,10.0,44,0.00,,,0.01,763.00,VWS V14.00,2013-04-25 19:41:00,
2013-04-25 15:46:00,52.8,30.9,30.11,NE,49,4.0,6.0,43,0.00,,,0.01,740.00,VWS V14.00,2013-04-25 19:46:00,
2013-04-25 15:51:00,52.8,32.1,30.11,SSE,159,1.0,5.0,45,0.00,,,0.01,728.00,VWS V14.00,2013-04-25 19:51:00,
2013-04-25 15:56:00,53.7,34.0,30.11,SSE,166,3.0,5.0,47,0.00,,,0.01,729.00,VWS V14.00,2013-04-25 19:56:00,
2013-04-25 16:01:00,54.2,32.2,30.11,SSE,148,1.0,10.0,43,0.00,,,0.01,705.00,VWS V14.00,2013-04-25 20:01:00,
2013-04-25 16:06:00,53.8,33.0,30.11,ESE,110,3.0,10.0,45,0.00,,,0.01,682.00,VWS V14.00,2013-04-25 20:06:00,
2013-04-25 16:11:00,53.6,31.7,30.11,SSE,153,3.0,10.0,43,0.00,,,0.01,617.00,VWS V14.00,2013-04-25 20:11:00,
2013-04-25 16:16:00,53.3,32.0,30.11,SE,144,1.0,10.0,44,0.00,,,0.01,650.00,VWS V14.00,2013-04-25 20:16:00,
2013-04-25 16:21:00,53.1,33.4,30.11,SE,140,5.0,7.0,47,0.00,,,0.01,643.00,VWS V14.00,2013-04-25 20:21:00,
2013-04-25 16:26:00,53.5,32.1,30.11,SSE,162,3.0,6.0,44,0.00,,,0.01,626.00,VWS V14.00,2013-04-25 20:26:00,
2013-04-25 16:31:00,53.6,32.2,30.11,ENE,57,2.0,7.0,44,0.00,,,0.01,606.00,VWS V14.00,2013-04-25 20:31:00,
2013-04-25 16:36:00,53.3,30.8,30.11,SE,144,7.0,8.0,42,0.00,,,0.01,598.00,VWS V14.00,2013-04-25 20:36:00,
2013-04-25 16:41:00,52.8,30.9,30.11,East,85,3.0,5.0,43,0.00,,,0.01,584.00,VWS V14.00,2013-04-25 20:41:00,
2013-04-25 16:46:00,52.5,30.7,30.11,SSE,153,1.0,1.0,43,0.00,,,0.01,568.00,VWS V14.00,2013-04-25 20:46:00,
2013-04-25 16:51:00,52.5,30.7,30.12,East,100,3.0,3.0,43,0.00,,,0.01,559.00,VWS V14.00,2013-04-25 20:51:00,
2013-04-25 16:56:00,52.6,33.0,30.12,SSE,154,5.0,6.0,47,0.00,,,0.01,541.00,VWS V14.00,2013-04-25 20:56:00,
2013-04-25 17:01:00,52.8,30.4,30.12,SE,141,0.0,1.0,42,0.00,,,0.01,522.00,VWS V14.00,2013-04-25 21:01:00,
2013-04-25 17:06:00,52.7,31.4,30.12,SSE,150,5.0,5.0,44,0.00,,,0.01,501.00,VWS V14.00,2013-04-25 21:06:00,
2013-04-25 17:11:00,52.6,31.3,30.12,SSE,153,2.0,2.0,44,0.00,,,0.01,487.00,VWS V14.00,2013-04-25 21:11:00,
2013-04-25 17:16:00,52.7,32.5,30.12,SSE,163,2.0,2.0,46,0.00,,,0.01,380.00,VWS V14.00,2013-04-25 21:16:00,
2013-04-25 17:21:00,52.8,30.9,30.13,SSE,155,2.0,2.0,43,0.00,,,0.01,424.00,VWS V14.00,2013-04-25 21:21:00,
2013-04-25 17:26:00,53.0,31.1,30.13,SSE,163,3.0,3.0,43,0.00,,,0.01,431.00,VWS V14.00,2013-04-25 21:26:00,
2013-04-25 17:31:00,53.0,31.7,30.13,SE,146,0.0,5.0,44,0.00,,,0.01,418.00,VWS V14.00,2013-04-25 21:31:00,
2013-04-25 17:36:00,52.7,30.3,30.13,SE,146,2.0,9.0,42,0.00,,,0.01,348.00,VWS V14.00,2013-04-25 21:36:00,
2013-04-25 17:41:00,52.3,29.3,30.13,ESE,103,4.0,9.0,41,0.00,,,0.01,371.00,VWS V14.00,2013-04-25 21:41:00,
2013-04-25 17:46:00,52.0,29.6,30.13,SE,140,5.0,8.0,42,0.00,,,0.01,357.00,VWS V14.00,2013-04-25 21:46:00,
2013-04-25 17:51:00,51.9,30.1,30.13,SE,145,4.0,8.0,43,0.00,,,0.01,341.00,VWS V14.00,2013-04-25 21:51:00,
2013-04-25 17:56:00,51.8,31.1,30.13,SSE,152,2.0,6.0,45,0.00,,,0.01,325.00,VWS V14.00,2013-04-25 21:56:00,
2013-04-25 18:01:00,51.9,31.8,30.14,SE,131,5.0,6.0,46,0.00,,,0.01,311.00,VWS V14.00,2013-04-25 22:01:00,
2013-04-25 18:06:00,52.0,30.2,30.13,SE,144,4.0,8.0,43,0.00,,,0.01,292.00,VWS V14.00,2013-04-25 22:06:00,
2013-04-25 18:11:00,51.9,30.7,30.14,SE,145,4.0,6.0,44,0.00,,,0.01,276.00,VWS V14.00,2013-04-25 22:11:00,
2013-04-25 18:16:00,51.7,29.9,30.14,ESE,107,2.0,5.0,43,0.00,,,0.01,260.00,VWS V14.00,2013-04-25 22:16:00,
2013-04-25 18:21:00,51.5,29.2,30.14,East,101,6.0,6.0,42,0.00,,,0.01,243.00,VWS V14.00,2013-04-25 22:21:00,
2013-04-25 18:25:00,51.4,29.1,30.14,East,94,5.0,6.0,42,0.00,,,0.01,223.00,VWS V14.00,2013-04-25 22:25:00,
2013-04-25 18:30:00,51.2,29.5,30.14,ESE,115,0.0,6.0,43,0.00,,,0.01,174.00,VWS V14.00,2013-04-25 22:30:00,
2013-04-25 18:36:00,51.0,29.3,30.15,East,97,1.0,5.0,43,0.00,,,0.01,192.00,VWS V14.00,2013-04-25 22:36:00,
2013-04-25 18:40:00,50.8,29.1,30.15,ESE,102,0.0,3.0,43,0.00,,,0.01,60.00,VWS V14.00,2013-04-25 22:40:00,
2013-04-25 18:45:00,50.6,29.0,30.15,ESE,119,0.0,3.0,43,0.00,,,0.01,44.00,VWS V14.00,2013-04-25 22:45:00,
2013-04-25 18:51:00,50.5,29.4,30.15,ESE,119,0.0,2.0,44,0.00,,,0.01,42.00,VWS V14.00,2013-04-25 22:51:00,
2013-04-25 18:56:00,50.4,29.9,30.15,ESE,119,0.0,3.0,45,0.00,,,0.01,40.00,VWS V14.00,2013-04-25 22:56:00,
2013-04-25 19:01:00,50.2,29.1,30.15,ESE,119,0.0,1.0,44,0.00,,,0.01,37.00,VWS V14.00,2013-04-25 23:01:00,
2013-04-25 19:06:00,50.1,29.0,30.15,ESE,119,0.0,2.0,44,0.00,,,0.01,40.00,VWS V14.00,2013-04-25 23:06:00,
2013-04-25 19:10:00,49.9,28.9,30.15,ESE,119,0.0,1.0,44,0.00,,,0.01,67.00,VWS V14.00,2013-04-25 23:10:00,
2013-04-25 19:15:00,49.7,28.7,30.16,ESE,119,0.0,1.0,44,0.00,,,0.01,53.00,VWS V14.00,2013-04-25 23:15:00,
2013-04-25 19:20:00,49.7,28.7,30.16,ESE,119,1.0,2.0,44,0.00,,,0.01,40.00,VWS V14.00,2013-04-25 23:20:00,
2013-04-25 19:25:00,49.6,28.6,30.16,ESE,119,0.0,0.0,44,0.00,,,0.01,23.00,VWS V14.00,2013-04-25 23:25:00,
2013-04-25 19:30:00,49.6,28.6,30.16,ESE,119,0.0,0.0,44,0.00,,,0.01,16.00,VWS V14.00,2013-04-25 23:30:00,
2013-04-25 19:35:00,49.5,29.6,30.16,ESE,119,0.0,1.0,46,0.00,,,0.01,14.00,VWS V14.00,2013-04-25 23:35:00,
2013-04-25 19:40:00,49.3,29.9,30.16,ESE,119,0.0,0.0,47,0.00,,,0.01,9.00,VWS V14.00,2013-04-25 23:40:00,
2013-04-25 19:45:00,49.1,29.8,30.16,ESE,119,0.0,0.0,47,0.00,,,0.01,7.00,VWS V14.00,2013-04-25 23:45:00,
2013-04-25 19:50:00,48.5,30.2,30.16,ESE,119,0.0,1.0,49,0.00,,,0.01,5.00,VWS V14.00,2013-04-25 23:50:00,
2013-04-25 19:56:00,47.8,30.1,30.17,ESE,119,0.0,1.0,50,0.00,,,0.01,0.00,VWS V14.00,2013-04-25 23:56:00,
2013-04-25 20:01:00,47.3,30.1,30.17,ESE,119,0.0,1.0,51,0.00,,,0.01,0.00,VWS V14.00,2013-04-26 00:01:00,
2013-04-25 20:06:00,46.8,29.6,30.18,ESE,119,0.0,1.0,51,0.00,,,0.01,0.00,VWS V14.00,2013-04-26 00:06:00,
2013-04-25 20:11:00,46.1,29.5,30.18,ESE,119,0.0,1.0,52,0.00,,,0.01,0.00,VWS V14.00,2013-04-26 00:11:00,
2013-04-25 20:16:00,45.5,29.8,30.18,ESE,119,0.0,0.0,54,0.00,,,0.01,0.00,VWS V14.00,2013-04-26 00:16:00,
2013-04-25 20:21:00,44.9,30.2,30.18,ESE,119,2.0,2.0,56,0.00,,,0.01,0.00,VWS V14.00,2013-04-26 00:21:00,
2013-04-25 20:26:00,44.3,30.0,30.19,ESE,119,1.0,2.0,57,0.00,,,0.01,0.00,VWS V14.00,2013-04-26 00:26:00,
2013-04-25 20:31:00,43.7,29.9,30.19,ESE,119,2.0,2.0,58,0.00,,,0.01,0.00,VWS V14.00,2013-04-26 00:31:00,
2013-04-25 20:36:00,43.1,30.2,30.19,ESE,119,2.0,3.0,60,0.00,,,0.01,0.00,VWS V14.00,2013-04-26 00:36:00,
2013-04-25 20:41:00,42.4,29.9,30.20,ESE,119,2.0,3.0,61,0.00,,,0.01,0.00,VWS V14.00,2013-04-26 00:41:00,
2013-04-25 20:46:00,41.8,29.8,30.20,ESE,119,3.0,3.0,62,0.00,,,0.01,0.00,VWS V14.00,2013-04-26 00:46:00,
2013-04-25 20:51:00,41.3,30.1,30.20,ENE,67,4.0,4.0,64,0.00,,,0.01,0.00,VWS V14.00,2013-04-26 00:51:00,
2013-04-25 20:56:00,40.8,30.3,30.20,NNW,346,2.0,4.0,66,0.00,,,0.01,0.00,VWS V14.00,2013-04-26 00:56:00,
2013-04-25 21:01:00,40.3,30.2,30.20,NNW,342,3.0,3.0,67,0.00,,,0.01,0.00,VWS V14.00,2013-04-26 01:01:00,
2013-04-25 21:06:00,39.9,30.2,30.21,NNW,342,2.0,3.0,68,0.00,,,0.01,0.00,VWS V14.00,2013-04-26 01:06:00,
2013-04-25 21:11:00,39.5,30.2,30.22,NNW,342,3.0,4.0,69,0.00,,,0.01,0.00,VWS V14.00,2013-04-26 01:11:00,
2013-04-25 21:16:00,39.1,29.8,30.21,NNW,342,3.0,4.0,69,0.00,,,0.01,0.00,VWS V14.00,2013-04-26 01:16:00,
2013-04-25 21:21:00,38.7,29.8,30.22,NNW,340,3.0,4.0,70,0.00,,,0.01,0.00,VWS V14.00,2013-04-26 01:21:00,
2013-04-25 21:26:00,38.4,29.8,30.22,NNW,336,0.0,4.0,71,0.00,,,0.01,0.00,VWS V14.00,2013-04-26 01:26:00,
2013-04-25 21:31:00,38.1,29.9,30.23,NNW,336,3.0,3.0,72,0.00,,,0.01,0.00,VWS V14.00,2013-04-26 01:31:00,
2013-04-25 21:36:00,37.8,29.6,30.23,NNW,335,3.0,4.0,72,0.00,,,0.01,0.00,VWS V14.00,2013-04-26 01:36:00,
2013-04-25 21:41:00,37.6,29.4,30.23,NNW,335,4.0,5.0,72,0.00,,,0.01,0.00,VWS V14.00,2013-04-26 01:41:00,
2013-04-25 21:46:00,37.3,29.5,30.23,NNW,335,0.0,5.0,73,0.00,,,0.01,0.00,VWS V14.00,2013-04-26 01:46:00,
2013-04-25 21:51:00,37.1,29.3,30.23,NNW,335,0.0,3.0,73,0.00,,,0.01,0.00,VWS V14.00,2013-04-26 01:51:00,
2013-04-25 21:56:00,36.8,29.3,30.23,NNW,335,2.0,3.0,74,0.00,,,0.01,0.00,VWS V14.00,2013-04-26 01:56:00,
2013-04-25 22:01:00,36.6,29.1,30.23,NNW,335,1.0,3.0,74,0.00,,,0.01,0.00,VWS V14.00,2013-04-26 02:01:00,
2013-04-25 22:06:00,36.4,28.9,30.24,NNW,335,0.0,4.0,74,0.00,,,0.01,0.00,VWS V14.00,2013-04-26 02:06:00,
2013-04-25 22:11:00,36.2,29.0,30.24,NNW,335,0.0,2.0,75,0.00,,,0.01,0.00,VWS V14.00,2013-04-26 02:11:00,
2013-04-25 22:16:00,36.0,28.9,30.24,NNW,335,0.0,1.0,75,0.00,,,0.01,0.00,VWS V14.00,2013-04-26 02:16:00,
2013-04-25 22:21:00,35.8,29.0,30.24,NNW,335,0.0,3.0,76,0.00,,,0.01,0.00,VWS V14.00,2013-04-26 02:21:00,
2013-04-25 22:26:00,35.6,28.8,30.24,NNW,335,0.0,3.0,76,0.00,,,0.01,0.00,VWS V14.00,2013-04-26 02:26:00,
2013-04-25 22:31:00,35.4,28.6,30.24,NNW,331,4.0,4.0,76,0.00,,,0.01,0.00,VWS V14.00,2013-04-26 02:31:00,
2013-04-25 22:36:00,35.2,28.7,30.24,NNW,331,2.0,4.0,77,0.00,,,0.01,0.00,VWS V14.00,2013-04-26 02:36:00,
2013-04-25 22:41:00,34.9,28.4,30.24,NNW,331,2.0,4.0,77,0.00,,,0.01,0.00,VWS V14.00,2013-04-26 02:41:00,
2013-04-25 22:46:00,34.7,28.5,30.24,NNW,331,4.0,4.0,78,0.00,,,0.01,0.00,VWS V14.00,2013-04-26 02:46:00,
2013-04-25 22:51:00,34.5,28.4,30.24,NNW,331,3.0,5.0,78,0.00,,,0.01,0.00,VWS V14.00,2013-04-26 02:51:00,
2013-04-25 22:56:00,34.3,28.2,30.24,NNW,328,4.0,5.0,78,0.00,,,0.01,0.00,VWS V14.00,2013-04-26 02:56:00,
2013-04-25 23:01:00,34.2,28.4,30.24,NW,325,3.0,5.0,79,0.00,,,0.01,0.00,VWS V14.00,2013-04-26 03:01:00,
2013-04-25 23:06:00,34.1,28.3,30.25,NW,316,2.0,5.0,79,0.00,,,0.01,0.00,VWS V14.00,2013-04-26 03:06:00,
2013-04-25 23:11:00,34.0,28.2,30.25,NW,314,4.0,5.0,79,0.00,,,0.01,0.00,VWS V14.00,2013-04-26 03:11:00,
2013-04-25 23:16:00,34.2,28.4,30.25,NW,313,4.0,5.0,79,0.00,,,0.01,0.00,VWS V14.00,2013-04-26 03:16:00,
2013-04-25 23:21:00,34.6,28.5,30.25,NW,311,2.0,2.0,78,0.00,,,0.01,0.00,VWS V14.00,2013-04-26 03:21:00,
2013-04-25 23:26:00,35.1,28.3,30.25,NW,310,3.0,5.0,76,0.00,,,0.01,0.00,VWS V14.00,2013-04-26 03:26:00,
2013-04-25 23:31:00,35.6,28.5,30.25,NW,310,0.0,4.0,75,0.00,,,0.01,0.00,VWS V14.00,2013-04-26 03:31:00,
2013-04-25 23:36:00,36.0,28.2,30.25,NW,310,0.0,3.0,73,0.00,,,0.01,0.00,VWS V14.00,2013-04-26 03:36:00,
2013-04-25 23:41:00,36.4,28.2,30.25,NW,310,3.0,4.0,72,0.00,,,0.01,0.00,VWS V14.00,2013-04-26 03:41:00,
2013-04-25 23:46:00,36.6,28.4,30.25,NW,310,0.0,3.0,72,0.00,,,0.01,0.00,VWS V14.00,2013-04-26 03:46:00,
2013-04-25 23:51:00,36.5,28.0,30.25,NW,310,0.0,4.0,71,0.00,,,0.01,0.00,VWS V14.00,2013-04-26 03:51:00,
2013-04-25 23:56:00,36.5,28.0,30.25,NW,310,0.0,2.0,71,0.00,,,0.01,0.00,VWS V14.00,2013-04-26 03:56:00,